sensor_id;sensor_type;location;lat;lon;timestamp;P1;durP1;ratioP1;P2;durP2;ratioP2
1649;SDS011;822;53.670;8.676;2022-12-07T00:00:55;0.53;;;0.53;;
1649;SDS011;822;53.670;8.676;2022-12-07T00:03:30;0.30;;;0.30;;
1649;SDS011;822;53.670;8.676;2022-12-07T00:05:57;0.33;;;0.33;;
1649;SDS011;822;53.670;8.676;2022-12-07T00:08:24;0.40;;;0.40;;
1649;SDS011;822;53.670;8.676;2022-12-07T00:10:51;0.40;;;0.40;;
1649;SDS011;822;53.670;8.676;2022-12-07T00:13:18;0.63;;;0.63;;
1649;SDS011;822;53.670;8.676;2022-12-07T00:15:46;0.40;;;0.40;;
1649;SDS011;822;53.670;8.676;2022-12-07T00:18:13;0.40;;;0.40;;
1649;SDS011;822;53.670;8.676;2022-12-07T00:20:39;0.47;;;0.30;;
1649;SDS011;822;53.670;8.676;2022-12-07T00:23:06;0.30;;;0.30;;
1649;SDS011;822;53.670;8.676;2022-12-07T00:25:33;0.40;;;0.40;;
1649;SDS011;822;53.670;8.676;2022-12-07T00:28:00;0.30;;;0.30;;
1649;SDS011;822;53.670;8.676;2022-12-07T00:30:29;0.50;;;0.50;;
1649;SDS011;822;53.670;8.676;2022-12-07T00:32:58;0.60;;;0.30;;
1649;SDS011;822;53.670;8.676;2022-12-07T00:35:24;0.30;;;0.30;;
1649;SDS011;822;53.670;8.676;2022-12-07T00:37:51;0.30;;;0.30;;
1649;SDS011;822;53.670;8.676;2022-12-07T00:40:18;0.30;;;0.30;;
1649;SDS011;822;53.670;8.676;2022-12-07T00:42:45;0.50;;;0.50;;
1649;SDS011;822;53.670;8.676;2022-12-07T00:45:11;0.47;;;0.47;;
1649;SDS011;822;53.670;8.676;2022-12-07T00:47:38;0.40;;;0.40;;
1649;SDS011;822;53.670;8.676;2022-12-07T00:50:07;0.30;;;0.30;;
1649;SDS011;822;53.670;8.676;2022-12-07T00:52:34;0.30;;;0.30;;
1649;SDS011;822;53.670;8.676;2022-12-07T00:55:01;0.40;;;0.40;;
1649;SDS011;822;53.670;8.676;2022-12-07T00:57:28;0.43;;;0.33;;
1649;SDS011;822;53.670;8.676;2022-12-07T00:59:56;0.40;;;0.40;;
1649;SDS011;822;53.670;8.676;2022-12-07T01:02:24;0.30;;;0.30;;
1649;SDS011;822;53.670;8.676;2022-12-07T01:04:51;0.90;;;0.90;;
1649;SDS011;822;53.670;8.676;2022-12-07T01:07:19;3.27;;;0.90;;
1649;SDS011;822;53.670;8.676;2022-12-07T01:09:46;6.63;;;1.27;;
1649;SDS011;822;53.670;8.676;2022-12-07T01:12:12;0.30;;;0.30;;
1649;SDS011;822;53.670;8.676;2022-12-07T01:14:41;0.50;;;0.40;;
1649;SDS011;822;53.670;8.676;2022-12-07T01:17:08;2.70;;;1.10;;
1649;SDS011;822;53.670;8.676;2022-12-07T01:19:34;0.40;;;0.40;;
1649;SDS011;822;53.670;8.676;2022-12-07T01:22:04;0.30;;;0.30;;
1649;SDS011;822;53.670;8.676;2022-12-07T01:24:32;2.63;;;0.47;;
1649;SDS011;822;53.670;8.676;2022-12-07T01:26:59;0.30;;;0.30;;
1649;SDS011;822;53.670;8.676;2022-12-07T01:29:26;0.50;;;0.50;;
1649;SDS011;822;53.670;8.676;2022-12-07T01:31:53;0.40;;;0.40;;
1649;SDS011;822;53.670;8.676;2022-12-07T01:34:19;1.10;;;0.90;;
1649;SDS011;822;53.670;8.676;2022-12-07T01:36:46;0.30;;;0.30;;
1649;SDS011;822;53.670;8.676;2022-12-07T01:39:13;0.53;;;0.53;;
1649;SDS011;822;53.670;8.676;2022-12-07T01:41:41;0.40;;;0.40;;
1649;SDS011;822;53.670;8.676;2022-12-07T01:44:13;0.60;;;0.60;;
1649;SDS011;822;53.670;8.676;2022-12-07T01:46:42;0.43;;;0.43;;
1649;SDS011;822;53.670;8.676;2022-12-07T01:49:11;0.93;;;0.80;;
1649;SDS011;822;53.670;8.676;2022-12-07T01:51:41;0.50;;;0.50;;
1649;SDS011;822;53.670;8.676;2022-12-07T01:54:08;0.50;;;0.50;;
1649;SDS011;822;53.670;8.676;2022-12-07T01:56:37;3.10;;;0.80;;
1649;SDS011;822;53.670;8.676;2022-12-07T01:59:09;0.37;;;0.37;;
1649;SDS011;822;53.670;8.676;2022-12-07T02:01:36;1.03;;;0.90;;
1649;SDS011;822;53.670;8.676;2022-12-07T02:04:03;0.40;;;0.40;;
1649;SDS011;822;53.670;8.676;2022-12-07T02:06:30;0.40;;;0.40;;
1649;SDS011;822;53.670;8.676;2022-12-07T02:08:57;0.30;;;0.30;;
1649;SDS011;822;53.670;8.676;2022-12-07T02:11:24;0.60;;;0.60;;
1649;SDS011;822;53.670;8.676;2022-12-07T02:13:51;0.40;;;0.40;;
1649;SDS011;822;53.670;8.676;2022-12-07T02:16:25;17.57;;;1.50;;
1649;SDS011;822;53.670;8.676;2022-12-07T02:21:56;0.30;;;0.30;;
1649;SDS011;822;53.670;8.676;2022-12-07T02:24:36;0.50;;;0.50;;
1649;SDS011;822;53.670;8.676;2022-12-07T02:27:15;0.43;;;0.43;;
1649;SDS011;822;53.670;8.676;2022-12-07T02:29:53;0.67;;;0.40;;
1649;SDS011;822;53.670;8.676;2022-12-07T02:32:24;0.40;;;0.40;;
1649;SDS011;822;53.670;8.676;2022-12-07T02:34:54;2.37;;;0.97;;
1649;SDS011;822;53.670;8.676;2022-12-07T02:37:25;1.07;;;0.70;;
1649;SDS011;822;53.670;8.676;2022-12-07T02:39:57;0.30;;;0.30;;
1649;SDS011;822;53.670;8.676;2022-12-07T02:42:27;3.37;;;0.87;;
1649;SDS011;822;53.670;8.676;2022-12-07T02:44:58;0.47;;;0.47;;
1649;SDS011;822;53.670;8.676;2022-12-07T02:47:26;0.60;;;0.60;;
1649;SDS011;822;53.670;8.676;2022-12-07T02:49:55;1.13;;;0.67;;
1649;SDS011;822;53.670;8.676;2022-12-07T02:52:24;0.40;;;0.40;;
1649;SDS011;822;53.670;8.676;2022-12-07T02:54:51;1.60;;;1.00;;
1649;SDS011;822;53.670;8.676;2022-12-07T02:57:22;0.57;;;0.57;;
1649;SDS011;822;53.670;8.676;2022-12-07T03:00:04;2.47;;;0.63;;
1649;SDS011;822;53.670;8.676;2022-12-07T03:02:35;0.70;;;0.50;;
1649;SDS011;822;53.670;8.676;2022-12-07T03:05:13;0.50;;;0.50;;
1649;SDS011;822;53.670;8.676;2022-12-07T03:07:49;0.40;;;0.40;;
1649;SDS011;822;53.670;8.676;2022-12-07T03:10:19;1.23;;;0.43;;
1649;SDS011;822;53.670;8.676;2022-12-07T03:12:53;0.70;;;0.70;;
1649;SDS011;822;53.670;8.676;2022-12-07T03:15:27;0.50;;;0.50;;
1649;SDS011;822;53.670;8.676;2022-12-07T03:17:58;0.70;;;0.50;;
1649;SDS011;822;53.670;8.676;2022-12-07T03:20:26;1.03;;;0.50;;
1649;SDS011;822;53.670;8.676;2022-12-07T03:22:54;0.40;;;0.40;;
1649;SDS011;822;53.670;8.676;2022-12-07T03:25:21;0.37;;;0.37;;
1649;SDS011;822;53.670;8.676;2022-12-07T03:27:49;0.40;;;0.40;;
1649;SDS011;822;53.670;8.676;2022-12-07T03:30:21;0.53;;;0.53;;
1649;SDS011;822;53.670;8.676;2022-12-07T03:32:53;0.40;;;0.30;;
1649;SDS011;822;53.670;8.676;2022-12-07T03:35:22;1.60;;;0.77;;
1649;SDS011;822;53.670;8.676;2022-12-07T03:37:53;0.30;;;0.30;;
1649;SDS011;822;53.670;8.676;2022-12-07T03:40:22;0.30;;;0.30;;
1649;SDS011;822;53.670;8.676;2022-12-07T03:42:51;1.90;;;0.93;;
1649;SDS011;822;53.670;8.676;2022-12-07T03:45:19;0.30;;;0.30;;
1649;SDS011;822;53.670;8.676;2022-12-07T03:47:50;0.30;;;0.30;;
1649;SDS011;822;53.670;8.676;2022-12-07T03:50:21;0.50;;;0.50;;
1649;SDS011;822;53.670;8.676;2022-12-07T03:52:52;1.07;;;0.50;;
1649;SDS011;822;53.670;8.676;2022-12-07T03:55:22;0.43;;;0.43;;
1649;SDS011;822;53.670;8.676;2022-12-07T03:57:52;0.30;;;0.30;;
1649;SDS011;822;53.670;8.676;2022-12-07T04:00:22;0.40;;;0.40;;
1649;SDS011;822;53.670;8.676;2022-12-07T04:02:50;0.30;;;0.30;;
1649;SDS011;822;53.670;8.676;2022-12-07T04:05:19;0.30;;;0.30;;
1649;SDS011;822;53.670;8.676;2022-12-07T04:07:46;0.40;;;0.40;;
1649;SDS011;822;53.670;8.676;2022-12-07T04:10:13;0.40;;;0.40;;
1649;SDS011;822;53.670;8.676;2022-12-07T04:12:39;0.37;;;0.37;;
1649;SDS011;822;53.670;8.676;2022-12-07T04:15:07;0.40;;;0.40;;
1649;SDS011;822;53.670;8.676;2022-12-07T04:17:34;0.30;;;0.30;;
1649;SDS011;822;53.670;8.676;2022-12-07T04:20:01;0.40;;;0.40;;
1649;SDS011;822;53.670;8.676;2022-12-07T04:22:30;1.13;;;0.60;;
1649;SDS011;822;53.670;8.676;2022-12-07T04:24:57;0.50;;;0.50;;
1649;SDS011;822;53.670;8.676;2022-12-07T04:27:24;0.40;;;0.40;;
1649;SDS011;822;53.670;8.676;2022-12-07T04:29:50;1.03;;;0.60;;
1649;SDS011;822;53.670;8.676;2022-12-07T04:32:17;0.30;;;0.30;;
1649;SDS011;822;53.670;8.676;2022-12-07T04:34:44;0.67;;;0.67;;
1649;SDS011;822;53.670;8.676;2022-12-07T04:37:11;2.73;;;0.40;;
1649;SDS011;822;53.670;8.676;2022-12-07T04:39:39;0.50;;;0.47;;
1649;SDS011;822;53.670;8.676;2022-12-07T04:42:06;0.40;;;0.40;;
1649;SDS011;822;53.670;8.676;2022-12-07T04:44:33;0.40;;;0.40;;
1649;SDS011;822;53.670;8.676;2022-12-07T04:47:00;0.43;;;0.43;;
1649;SDS011;822;53.670;8.676;2022-12-07T04:49:27;0.40;;;0.40;;
1649;SDS011;822;53.670;8.676;2022-12-07T04:51:54;0.40;;;0.40;;
1649;SDS011;822;53.670;8.676;2022-12-07T04:54:20;0.40;;;0.40;;
1649;SDS011;822;53.670;8.676;2022-12-07T04:56:48;0.40;;;0.40;;
1649;SDS011;822;53.670;8.676;2022-12-07T04:59:16;0.40;;;0.40;;
1649;SDS011;822;53.670;8.676;2022-12-07T05:01:43;0.30;;;0.30;;
1649;SDS011;822;53.670;8.676;2022-12-07T05:04:10;0.50;;;0.50;;
1649;SDS011;822;53.670;8.676;2022-12-07T05:06:37;0.50;;;0.50;;
1649;SDS011;822;53.670;8.676;2022-12-07T05:09:04;0.30;;;0.30;;
1649;SDS011;822;53.670;8.676;2022-12-07T05:11:31;0.30;;;0.30;;
1649;SDS011;822;53.670;8.676;2022-12-07T05:14:09;0.40;;;0.40;;
1649;SDS011;822;53.670;8.676;2022-12-07T05:16:38;0.53;;;0.40;;
1649;SDS011;822;53.670;8.676;2022-12-07T05:19:05;0.37;;;0.37;;
1649;SDS011;822;53.670;8.676;2022-12-07T05:21:33;0.30;;;0.30;;
1649;SDS011;822;53.670;8.676;2022-12-07T05:24:00;0.30;;;0.30;;
1649;SDS011;822;53.670;8.676;2022-12-07T05:26:27;0.30;;;0.30;;
1649;SDS011;822;53.670;8.676;2022-12-07T05:28:54;0.30;;;0.30;;
1649;SDS011;822;53.670;8.676;2022-12-07T05:31:23;0.50;;;0.40;;
1649;SDS011;822;53.670;8.676;2022-12-07T05:33:51;0.50;;;0.50;;
1649;SDS011;822;53.670;8.676;2022-12-07T05:36:18;0.30;;;0.30;;
1649;SDS011;822;53.670;8.676;2022-12-07T05:38:45;0.37;;;0.37;;
1649;SDS011;822;53.670;8.676;2022-12-07T05:41:12;1.03;;;0.50;;
1649;SDS011;822;53.670;8.676;2022-12-07T05:43:54;0.30;;;0.30;;
1649;SDS011;822;53.670;8.676;2022-12-07T05:46:23;0.40;;;0.40;;
1649;SDS011;822;53.670;8.676;2022-12-07T05:48:49;0.30;;;0.30;;
1649;SDS011;822;53.670;8.676;2022-12-07T05:51:16;0.30;;;0.30;;
1649;SDS011;822;53.670;8.676;2022-12-07T05:53:43;0.30;;;0.30;;
1649;SDS011;822;53.670;8.676;2022-12-07T05:56:11;0.40;;;0.40;;
1649;SDS011;822;53.670;8.676;2022-12-07T05:58:38;0.60;;;0.50;;
1649;SDS011;822;53.670;8.676;2022-12-07T06:01:24;0.30;;;0.30;;
1649;SDS011;822;53.670;8.676;2022-12-07T06:03:51;0.30;;;0.30;;
1649;SDS011;822;53.670;8.676;2022-12-07T06:06:18;0.30;;;0.30;;
1649;SDS011;822;53.670;8.676;2022-12-07T06:08:44;0.30;;;0.30;;
1649;SDS011;822;53.670;8.676;2022-12-07T06:11:11;0.30;;;0.30;;
1649;SDS011;822;53.670;8.676;2022-12-07T06:13:52;0.30;;;0.30;;
1649;SDS011;822;53.670;8.676;2022-12-07T06:16:19;0.43;;;0.43;;
1649;SDS011;822;53.670;8.676;2022-12-07T06:18:47;0.40;;;0.40;;
1649;SDS011;822;53.670;8.676;2022-12-07T06:21:17;0.30;;;0.30;;
1649;SDS011;822;53.670;8.676;2022-12-07T06:23:44;0.30;;;0.30;;
1649;SDS011;822;53.670;8.676;2022-12-07T06:26:12;0.50;;;0.50;;
1649;SDS011;822;53.670;8.676;2022-12-07T06:28:39;0.30;;;0.30;;
1649;SDS011;822;53.670;8.676;2022-12-07T06:31:07;0.30;;;0.30;;
1649;SDS011;822;53.670;8.676;2022-12-07T06:33:34;0.50;;;0.40;;
1649;SDS011;822;53.670;8.676;2022-12-07T06:36:02;0.30;;;0.30;;
1649;SDS011;822;53.670;8.676;2022-12-07T06:38:29;0.30;;;0.30;;
1649;SDS011;822;53.670;8.676;2022-12-07T06:40:56;1.17;;;0.73;;
1649;SDS011;822;53.670;8.676;2022-12-07T06:43:23;0.40;;;0.40;;
1649;SDS011;822;53.670;8.676;2022-12-07T06:45:50;0.30;;;0.30;;
1649;SDS011;822;53.670;8.676;2022-12-07T06:48:17;0.40;;;0.40;;
1649;SDS011;822;53.670;8.676;2022-12-07T06:50:44;0.50;;;0.50;;
1649;SDS011;822;53.670;8.676;2022-12-07T06:53:12;0.27;;;0.27;;
1649;SDS011;822;53.670;8.676;2022-12-07T06:55:39;0.73;;;0.73;;
1649;SDS011;822;53.670;8.676;2022-12-07T06:58:06;0.43;;;0.43;;
1649;SDS011;822;53.670;8.676;2022-12-07T07:00:33;2.83;;;0.50;;
1649;SDS011;822;53.670;8.676;2022-12-07T07:03:00;0.53;;;0.50;;
1649;SDS011;822;53.670;8.676;2022-12-07T07:05:27;2.70;;;1.27;;
1649;SDS011;822;53.670;8.676;2022-12-07T07:07:54;0.37;;;0.37;;
1649;SDS011;822;53.670;8.676;2022-12-07T07:10:23;0.37;;;0.37;;
1649;SDS011;822;53.670;8.676;2022-12-07T07:12:49;0.70;;;0.60;;
1649;SDS011;822;53.670;8.676;2022-12-07T07:15:16;0.40;;;0.40;;
1649;SDS011;822;53.670;8.676;2022-12-07T07:17:43;2.00;;;0.40;;
1649;SDS011;822;53.670;8.676;2022-12-07T07:20:10;0.50;;;0.50;;
1649;SDS011;822;53.670;8.676;2022-12-07T07:22:38;0.60;;;0.60;;
1649;SDS011;822;53.670;8.676;2022-12-07T07:25:05;2.63;;;0.63;;
1649;SDS011;822;53.670;8.676;2022-12-07T07:27:33;0.60;;;0.40;;
1649;SDS011;822;53.670;8.676;2022-12-07T07:30:00;0.50;;;0.30;;
1649;SDS011;822;53.670;8.676;2022-12-07T07:32:27;0.40;;;0.40;;
1649;SDS011;822;53.670;8.676;2022-12-07T07:34:54;0.33;;;0.33;;
1649;SDS011;822;53.670;8.676;2022-12-07T07:37:21;0.30;;;0.30;;
1649;SDS011;822;53.670;8.676;2022-12-07T07:39:48;0.50;;;0.50;;
1649;SDS011;822;53.670;8.676;2022-12-07T07:42:14;1.43;;;0.40;;
1649;SDS011;822;53.670;8.676;2022-12-07T07:44:43;0.63;;;0.60;;
1649;SDS011;822;53.670;8.676;2022-12-07T07:47:10;0.30;;;0.30;;
1649;SDS011;822;53.670;8.676;2022-12-07T07:49:37;0.50;;;0.50;;
1649;SDS011;822;53.670;8.676;2022-12-07T07:52:04;0.30;;;0.30;;
1649;SDS011;822;53.670;8.676;2022-12-07T07:54:31;0.30;;;0.30;;
1649;SDS011;822;53.670;8.676;2022-12-07T07:56:58;0.33;;;0.33;;
1649;SDS011;822;53.670;8.676;2022-12-07T07:59:25;0.50;;;0.50;;
1649;SDS011;822;53.670;8.676;2022-12-07T08:01:59;0.30;;;0.30;;
1649;SDS011;822;53.670;8.676;2022-12-07T08:04:26;0.80;;;0.60;;
1649;SDS011;822;53.670;8.676;2022-12-07T08:06:53;0.30;;;0.30;;
1649;SDS011;822;53.670;8.676;2022-12-07T08:09:20;0.40;;;0.40;;
1649;SDS011;822;53.670;8.676;2022-12-07T08:11:46;0.37;;;0.37;;
1649;SDS011;822;53.670;8.676;2022-12-07T08:14:13;0.30;;;0.30;;
1649;SDS011;822;53.670;8.676;2022-12-07T08:16:40;0.30;;;0.30;;
1649;SDS011;822;53.670;8.676;2022-12-07T08:19:08;0.30;;;0.30;;
1649;SDS011;822;53.670;8.676;2022-12-07T08:21:35;0.30;;;0.30;;
1649;SDS011;822;53.670;8.676;2022-12-07T08:24:02;0.30;;;0.30;;
1649;SDS011;822;53.670;8.676;2022-12-07T08:26:29;0.50;;;0.50;;
1649;SDS011;822;53.670;8.676;2022-12-07T08:28:55;0.70;;;0.50;;
1649;SDS011;822;53.670;8.676;2022-12-07T08:31:23;0.30;;;0.30;;
1649;SDS011;822;53.670;8.676;2022-12-07T08:33:50;0.30;;;0.30;;
1649;SDS011;822;53.670;8.676;2022-12-07T08:36:19;0.70;;;0.37;;
1649;SDS011;822;53.670;8.676;2022-12-07T08:38:47;4.17;;;0.50;;
1649;SDS011;822;53.670;8.676;2022-12-07T08:41:14;0.30;;;0.30;;
1649;SDS011;822;53.670;8.676;2022-12-07T08:43:41;1.27;;;0.60;;
1649;SDS011;822;53.670;8.676;2022-12-07T08:46:10;0.37;;;0.37;;
1649;SDS011;822;53.670;8.676;2022-12-07T08:48:39;2.47;;;0.67;;
1649;SDS011;822;53.670;8.676;2022-12-07T08:51:11;1.80;;;0.80;;
1649;SDS011;822;53.670;8.676;2022-12-07T08:53:40;0.40;;;0.40;;
1649;SDS011;822;53.670;8.676;2022-12-07T08:56:07;0.30;;;0.30;;
1649;SDS011;822;53.670;8.676;2022-12-07T08:58:34;0.50;;;0.50;;
1649;SDS011;822;53.670;8.676;2022-12-07T09:01:02;0.30;;;0.30;;
1649;SDS011;822;53.670;8.676;2022-12-07T09:03:29;0.40;;;0.40;;
1649;SDS011;822;53.670;8.676;2022-12-07T09:05:56;0.30;;;0.30;;
1649;SDS011;822;53.670;8.676;2022-12-07T09:08:25;0.30;;;0.30;;
1649;SDS011;822;53.670;8.676;2022-12-07T09:10:54;0.30;;;0.30;;
1649;SDS011;822;53.670;8.676;2022-12-07T09:13:21;0.53;;;0.53;;
1649;SDS011;822;53.670;8.676;2022-12-07T09:15:48;0.40;;;0.40;;
1649;SDS011;822;53.670;8.676;2022-12-07T09:18:15;0.40;;;0.40;;
1649;SDS011;822;53.670;8.676;2022-12-07T09:20:42;0.50;;;0.40;;
1649;SDS011;822;53.670;8.676;2022-12-07T09:23:09;0.77;;;0.40;;
1649;SDS011;822;53.670;8.676;2022-12-07T09:25:35;1.20;;;0.60;;
1649;SDS011;822;53.670;8.676;2022-12-07T09:28:04;0.20;;;0.20;;
1649;SDS011;822;53.670;8.676;2022-12-07T09:30:34;3.50;;;0.40;;
1649;SDS011;822;53.670;8.676;2022-12-07T09:33:01;0.50;;;0.50;;
1649;SDS011;822;53.670;8.676;2022-12-07T09:35:28;1.63;;;0.77;;
1649;SDS011;822;53.670;8.676;2022-12-07T09:37:55;0.70;;;0.43;;
1649;SDS011;822;53.670;8.676;2022-12-07T09:40:22;1.23;;;0.70;;
1649;SDS011;822;53.670;8.676;2022-12-07T09:42:49;2.20;;;1.17;;
1649;SDS011;822;53.670;8.676;2022-12-07T09:45:21;0.30;;;0.30;;
1649;SDS011;822;53.670;8.676;2022-12-07T09:47:49;0.40;;;0.40;;
1649;SDS011;822;53.670;8.676;2022-12-07T09:50:16;0.43;;;0.43;;
1649;SDS011;822;53.670;8.676;2022-12-07T09:52:46;1.57;;;0.47;;
1649;SDS011;822;53.670;8.676;2022-12-07T09:55:14;1.03;;;0.50;;
1649;SDS011;822;53.670;8.676;2022-12-07T09:57:43;2.97;;;0.50;;
1649;SDS011;822;53.670;8.676;2022-12-07T10:00:11;0.30;;;0.30;;
1649;SDS011;822;53.670;8.676;2022-12-07T10:02:42;0.40;;;0.40;;
1649;SDS011;822;53.670;8.676;2022-12-07T10:05:12;1.13;;;0.30;;
1649;SDS011;822;53.670;8.676;2022-12-07T10:07:41;0.60;;;0.60;;
1649;SDS011;822;53.670;8.676;2022-12-07T10:10:12;0.30;;;0.30;;
1649;SDS011;822;53.670;8.676;2022-12-07T10:12:58;0.40;;;0.40;;
1649;SDS011;822;53.670;8.676;2022-12-07T10:15:45;0.37;;;0.37;;
1649;SDS011;822;53.670;8.676;2022-12-07T10:18:18;0.40;;;0.40;;
1649;SDS011;822;53.670;8.676;2022-12-07T10:20:46;1.13;;;1.03;;
1649;SDS011;822;53.670;8.676;2022-12-07T10:23:14;2.43;;;0.40;;
1649;SDS011;822;53.670;8.676;2022-12-07T10:25:42;0.50;;;0.50;;
1649;SDS011;822;53.670;8.676;2022-12-07T10:28:11;0.30;;;0.30;;
1649;SDS011;822;53.670;8.676;2022-12-07T10:30:46;0.50;;;0.50;;
1649;SDS011;822;53.670;8.676;2022-12-07T10:33:32;0.43;;;0.43;;
1649;SDS011;822;53.670;8.676;2022-12-07T10:36:00;2.30;;;0.60;;
1649;SDS011;822;53.670;8.676;2022-12-07T10:38:43;0.30;;;0.30;;
1649;SDS011;822;53.670;8.676;2022-12-07T10:41:12;0.53;;;0.53;;
1649;SDS011;822;53.670;8.676;2022-12-07T10:43:46;0.60;;;0.50;;
1649;SDS011;822;53.670;8.676;2022-12-07T10:46:35;0.67;;;0.67;;
1649;SDS011;822;53.670;8.676;2022-12-07T10:49:15;1.80;;;0.40;;
1649;SDS011;822;53.670;8.676;2022-12-07T10:52:04;0.30;;;0.30;;
1649;SDS011;822;53.670;8.676;2022-12-07T10:54:38;1.43;;;0.50;;
1649;SDS011;822;53.670;8.676;2022-12-07T10:57:11;0.50;;;0.30;;
1649;SDS011;822;53.670;8.676;2022-12-07T10:59:53;0.40;;;0.30;;
1649;SDS011;822;53.670;8.676;2022-12-07T11:02:35;0.40;;;0.40;;
1649;SDS011;822;53.670;8.676;2022-12-07T11:05:13;5.93;;;0.50;;
1649;SDS011;822;53.670;8.676;2022-12-07T11:07:46;0.40;;;0.40;;
1649;SDS011;822;53.670;8.676;2022-12-07T11:10:18;0.37;;;0.37;;
1649;SDS011;822;53.670;8.676;2022-12-07T11:12:49;0.70;;;0.57;;
1649;SDS011;822;53.670;8.676;2022-12-07T11:15:21;0.63;;;0.63;;
1649;SDS011;822;53.670;8.676;2022-12-07T11:17:53;2.00;;;0.70;;
1649;SDS011;822;53.670;8.676;2022-12-07T11:20:28;2.30;;;0.47;;
1649;SDS011;822;53.670;8.676;2022-12-07T11:23:01;0.67;;;0.50;;
1649;SDS011;822;53.670;8.676;2022-12-07T11:25:31;10.50;;;0.70;;
1649;SDS011;822;53.670;8.676;2022-12-07T11:28:05;0.63;;;0.40;;
1649;SDS011;822;53.670;8.676;2022-12-07T11:30:42;0.80;;;0.80;;
1649;SDS011;822;53.670;8.676;2022-12-07T11:33:15;0.40;;;0.40;;
1649;SDS011;822;53.670;8.676;2022-12-07T11:35:55;0.47;;;0.47;;
1649;SDS011;822;53.670;8.676;2022-12-07T11:38:28;0.30;;;0.30;;
1649;SDS011;822;53.670;8.676;2022-12-07T11:41:00;0.70;;;0.50;;
1649;SDS011;822;53.670;8.676;2022-12-07T11:43:37;0.53;;;0.53;;
1649;SDS011;822;53.670;8.676;2022-12-07T11:46:14;0.33;;;0.33;;
1649;SDS011;822;53.670;8.676;2022-12-07T11:48:43;0.40;;;0.40;;
1649;SDS011;822;53.670;8.676;2022-12-07T11:51:14;0.30;;;0.30;;
1649;SDS011;822;53.670;8.676;2022-12-07T11:53:44;0.70;;;0.70;;
1649;SDS011;822;53.670;8.676;2022-12-07T11:56:15;1.90;;;0.60;;
1649;SDS011;822;53.670;8.676;2022-12-07T11:58:46;0.40;;;0.40;;
1649;SDS011;822;53.670;8.676;2022-12-07T12:01:18;0.50;;;0.40;;
1649;SDS011;822;53.670;8.676;2022-12-07T12:04:01;0.40;;;0.40;;
1649;SDS011;822;53.670;8.676;2022-12-07T12:06:33;0.30;;;0.30;;
1649;SDS011;822;53.670;8.676;2022-12-07T12:09:02;0.40;;;0.40;;
1649;SDS011;822;53.670;8.676;2022-12-07T12:11:37;0.60;;;0.60;;
1649;SDS011;822;53.670;8.676;2022-12-07T12:14:17;2.40;;;0.63;;
1649;SDS011;822;53.670;8.676;2022-12-07T12:17:11;2.10;;;0.57;;
1649;SDS011;822;53.670;8.676;2022-12-07T12:19:57;0.50;;;0.50;;
1649;SDS011;822;53.670;8.676;2022-12-07T12:22:32;0.50;;;0.50;;
1649;SDS011;822;53.670;8.676;2022-12-07T12:25:03;0.73;;;0.67;;
1649;SDS011;822;53.670;8.676;2022-12-07T12:27:33;1.00;;;0.40;;
1649;SDS011;822;53.670;8.676;2022-12-07T12:30:01;0.40;;;0.40;;
1649;SDS011;822;53.670;8.676;2022-12-07T12:32:32;0.90;;;0.63;;
1649;SDS011;822;53.670;8.676;2022-12-07T12:37:54;0.63;;;0.63;;
1649;SDS011;822;53.670;8.676;2022-12-07T12:40:37;0.50;;;0.50;;
1649;SDS011;822;53.670;8.676;2022-12-07T12:55:16;0.97;;;0.47;;
1649;SDS011;822;53.670;8.676;2022-12-07T13:03:54;0.67;;;0.67;;
1649;SDS011;822;53.670;8.676;2022-12-07T13:06:31;0.80;;;0.47;;
1649;SDS011;822;53.670;8.676;2022-12-07T13:09:00;0.30;;;0.30;;
1649;SDS011;822;53.670;8.676;2022-12-07T13:11:29;0.30;;;0.30;;
1649;SDS011;822;53.670;8.676;2022-12-07T13:16:58;0.50;;;0.50;;
1649;SDS011;822;53.670;8.676;2022-12-07T13:25:24;0.30;;;0.30;;
1649;SDS011;822;53.670;8.676;2022-12-07T13:28:01;0.50;;;0.43;;
1649;SDS011;822;53.670;8.676;2022-12-07T13:30:29;5.70;;;0.80;;
1649;SDS011;822;53.670;8.676;2022-12-07T13:32:57;2.20;;;0.53;;
1649;SDS011;822;53.670;8.676;2022-12-07T13:35:31;0.40;;;0.40;;
1649;SDS011;822;53.670;8.676;2022-12-07T13:38:02;0.40;;;0.40;;
1649;SDS011;822;53.670;8.676;2022-12-07T13:40:32;0.50;;;0.50;;
1649;SDS011;822;53.670;8.676;2022-12-07T13:43:01;0.63;;;0.63;;
1649;SDS011;822;53.670;8.676;2022-12-07T13:45:30;1.03;;;1.00;;
1649;SDS011;822;53.670;8.676;2022-12-07T13:48:21;2.57;;;1.10;;
1649;SDS011;822;53.670;8.676;2022-12-07T13:50:52;4.07;;;0.73;;
1649;SDS011;822;53.670;8.676;2022-12-07T13:53:23;0.93;;;0.70;;
1649;SDS011;822;53.670;8.676;2022-12-07T13:55:53;1.17;;;0.70;;
1649;SDS011;822;53.670;8.676;2022-12-07T13:58:23;1.33;;;0.47;;
1649;SDS011;822;53.670;8.676;2022-12-07T14:00:50;0.80;;;0.43;;
1649;SDS011;822;53.670;8.676;2022-12-07T14:03:23;0.60;;;0.60;;
1649;SDS011;822;53.670;8.676;2022-12-07T14:06:03;2.83;;;0.60;;
1649;SDS011;822;53.670;8.676;2022-12-07T14:08:33;0.37;;;0.37;;
1649;SDS011;822;53.670;8.676;2022-12-07T14:10:59;0.50;;;0.50;;
1649;SDS011;822;53.670;8.676;2022-12-07T14:13:29;1.50;;;0.50;;
1649;SDS011;822;53.670;8.676;2022-12-07T14:15:59;0.50;;;0.50;;
1649;SDS011;822;53.670;8.676;2022-12-07T14:18:27;2.20;;;0.60;;
1649;SDS011;822;53.670;8.676;2022-12-07T14:21:05;4.50;;;1.70;;
1649;SDS011;822;53.670;8.676;2022-12-07T14:23:32;0.83;;;0.83;;
1649;SDS011;822;53.670;8.676;2022-12-07T14:26:05;3.23;;;1.50;;
1649;SDS011;822;53.670;8.676;2022-12-07T14:28:36;2.90;;;0.57;;
1649;SDS011;822;53.670;8.676;2022-12-07T14:31:07;1.13;;;0.40;;
1649;SDS011;822;53.670;8.676;2022-12-07T14:33:37;2.33;;;0.47;;
1649;SDS011;822;53.670;8.676;2022-12-07T14:36:04;0.70;;;0.70;;
1649;SDS011;822;53.670;8.676;2022-12-07T14:38:32;1.43;;;0.80;;
1649;SDS011;822;53.670;8.676;2022-12-07T14:40:59;1.20;;;0.80;;
1649;SDS011;822;53.670;8.676;2022-12-07T14:43:51;0.40;;;0.40;;
1649;SDS011;822;53.670;8.676;2022-12-07T14:46:18;4.60;;;4.17;;
1649;SDS011;822;53.670;8.676;2022-12-07T14:48:45;1.20;;;1.10;;
1649;SDS011;822;53.670;8.676;2022-12-07T14:51:12;1.07;;;0.47;;
1649;SDS011;822;53.670;8.676;2022-12-07T14:53:40;1.53;;;0.77;;
1649;SDS011;822;53.670;8.676;2022-12-07T14:56:08;2.43;;;2.23;;
1649;SDS011;822;53.670;8.676;2022-12-07T14:58:35;1.30;;;1.27;;
1649;SDS011;822;53.670;8.676;2022-12-07T15:01:06;0.60;;;0.60;;
1649;SDS011;822;53.670;8.676;2022-12-07T15:03:33;0.83;;;0.70;;
1649;SDS011;822;53.670;8.676;2022-12-07T15:06:03;1.37;;;1.27;;
1649;SDS011;822;53.670;8.676;2022-12-07T15:08:30;0.60;;;0.60;;
1649;SDS011;822;53.670;8.676;2022-12-07T15:10:57;0.80;;;0.77;;
1649;SDS011;822;53.670;8.676;2022-12-07T15:13:24;0.57;;;0.57;;
1649;SDS011;822;53.670;8.676;2022-12-07T15:16:09;1.13;;;1.13;;
1649;SDS011;822;53.670;8.676;2022-12-07T15:18:37;0.63;;;0.63;;
1649;SDS011;822;53.670;8.676;2022-12-07T15:21:04;0.77;;;0.77;;
1649;SDS011;822;53.670;8.676;2022-12-07T15:23:31;1.33;;;1.33;;
1649;SDS011;822;53.670;8.676;2022-12-07T15:25:58;1.67;;;1.57;;
1649;SDS011;822;53.670;8.676;2022-12-07T15:28:25;1.67;;;1.57;;
1649;SDS011;822;53.670;8.676;2022-12-07T15:30:51;2.10;;;1.93;;
1649;SDS011;822;53.670;8.676;2022-12-07T15:33:20;4.13;;;2.83;;
1649;SDS011;822;53.670;8.676;2022-12-07T15:35:47;7.90;;;7.23;;
1649;SDS011;822;53.670;8.676;2022-12-07T15:38:14;12.23;;;6.97;;
1649;SDS011;822;53.670;8.676;2022-12-07T15:40:41;1.90;;;1.80;;
1649;SDS011;822;53.670;8.676;2022-12-07T15:43:08;2.13;;;1.87;;
1649;SDS011;822;53.670;8.676;2022-12-07T15:45:55;1.87;;;1.80;;
1649;SDS011;822;53.670;8.676;2022-12-07T15:48:22;0.90;;;0.90;;
1649;SDS011;822;53.670;8.676;2022-12-07T15:50:49;1.27;;;1.17;;
1649;SDS011;822;53.670;8.676;2022-12-07T15:53:16;1.30;;;1.23;;
1649;SDS011;822;53.670;8.676;2022-12-07T15:55:44;1.07;;;1.07;;
1649;SDS011;822;53.670;8.676;2022-12-07T15:58:11;0.67;;;0.67;;
1649;SDS011;822;53.670;8.676;2022-12-07T16:00:38;0.73;;;0.73;;
1649;SDS011;822;53.670;8.676;2022-12-07T16:03:04;2.20;;;1.30;;
1649;SDS011;822;53.670;8.676;2022-12-07T16:05:33;0.97;;;0.97;;
1649;SDS011;822;53.670;8.676;2022-12-07T16:08:00;1.57;;;1.47;;
1649;SDS011;822;53.670;8.676;2022-12-07T16:10:26;0.97;;;0.97;;
1649;SDS011;822;53.670;8.676;2022-12-07T16:12:53;1.90;;;1.47;;
1649;SDS011;822;53.670;8.676;2022-12-07T16:15:20;2.40;;;2.20;;
1649;SDS011;822;53.670;8.676;2022-12-07T16:17:49;1.70;;;1.60;;